createdAt,value
2019-05-02T09:00:13.968Z,50.62
2019-05-02T09:01:15.520Z,50.72
2019-05-02T09:02:45.384Z,50.72
2019-05-02T09:04:00.767Z,49.52
2019-05-02T09:05:16.848Z,50.42
2019-05-02T09:06:17.072Z,50.22
2019-05-02T09:07:48.425Z,50.52
2019-05-02T09:08:51.531Z,50.29
2019-05-02T09:10:19.742Z,50.12
2019-05-02T09:11:19.725Z,50.29
2019-05-02T09:12:52.047Z,49.22
2019-05-02T09:13:50.163Z,50.22
2019-05-02T09:15:22.329Z,49.22
2019-05-02T09:16:23.772Z,49.41
2019-05-02T09:17:56.224Z,49.32
2019-05-02T09:18:54.235Z,49.32
2019-05-02T09:20:00.398Z,49.49
2019-05-02T09:20:56.615Z,49.29
2019-05-02T09:21:52.577Z,49.52
2019-05-02T09:22:55.799Z,49.49
2019-05-02T09:23:52.005Z,49.59
2019-05-02T09:24:52.108Z,49.52
2019-05-02T09:25:52.037Z,49.62
2019-05-02T09:26:52.057Z,49.52
2019-05-02T09:27:52.625Z,49.49
2019-05-02T09:28:56.312Z,49.59
2019-05-02T09:29:52.943Z,50.20
2019-05-02T09:30:52.420Z,50.49
2019-05-02T09:31:52.710Z,50.62
2019-05-02T09:32:52.291Z,50.09
2019-05-02T09:33:52.425Z,50.09
2019-05-02T09:34:51.985Z,50.20
2019-05-02T09:35:51.872Z,50.99
2019-05-02T09:36:52.918Z,50.59
2019-05-02T09:37:52.344Z,50.70
2019-05-02T09:38:56.034Z,50.92
2019-05-02T09:39:52.827Z,50.79
2019-05-02T09:40:55.922Z,50.79
2019-05-02T09:41:52.670Z,50.09
2019-05-02T09:42:53.437Z,49.59
2019-05-02T09:43:52.407Z,49.40
2019-05-02T09:44:55.726Z,49.99
2019-05-02T09:45:52.112Z,50.20
2019-05-02T09:46:55.331Z,50.39
2019-05-02T09:47:58.225Z,49.09
2019-05-02T09:48:57.014Z,49.49
2019-05-02T09:49:53.146Z,48.90
2019-05-02T09:50:52.839Z,48.11
2019-05-02T09:51:59.038Z,48.39
2019-05-02T09:52:52.686Z,47.49
2019-05-02T09:53:52.387Z,46.19
2019-05-02T09:54:51.909Z,46.00
2019-05-02T09:55:55.790Z,46.00
2019-05-02T09:56:52.653Z,45.59
2019-05-02T09:57:51.985Z,45.89
2019-05-02T09:58:55.301Z,45.59
2019-05-02T09:59:55.696Z,45.69
2019-05-02T10:00:52.533Z,45.69
2019-05-02T10:01:52.699Z,46.00
2019-05-02T10:02:52.317Z,45.79
2019-05-02T10:03:51.933Z,46.00
2019-05-02T10:04:52.369Z,45.89
2019-05-02T10:05:52.319Z,46.00
2019-05-02T10:06:52.503Z,45.20
2019-05-02T10:07:52.576Z,44.92
2019-05-02T10:08:51.966Z,45.72
2019-05-02T10:09:51.943Z,44.92
2019-05-02T10:10:52.148Z,45.51
2019-05-02T10:11:52.486Z,45.09
2019-05-02T10:12:52.147Z,45.21
2019-05-02T10:13:51.947Z,44.51
2019-05-02T10:14:52.685Z,45.12
2019-05-02T10:15:52.741Z,44.92
2019-05-02T10:16:52.915Z,44.20
2019-05-02T10:17:51.951Z,45.50
2019-05-02T10:18:52.313Z,44.79
2019-05-02T10:19:57.054Z,45.01
2019-05-02T10:20:52.590Z,45.21
2019-05-02T10:21:52.491Z,45.01
2019-05-02T10:22:53.019Z,45.12
2019-05-02T10:23:59.016Z,44.89
2019-05-02T10:24:52.346Z,45.50
2019-05-02T10:25:52.126Z,45.21
2019-05-02T10:26:57.096Z,45.21
2019-05-02T10:27:52.484Z,44.89
2019-05-02T10:28:53.341Z,45.31
2019-05-02T10:29:52.442Z,45.31
2019-05-02T10:30:52.737Z,44.82
2019-05-02T10:31:52.758Z,44.71
2019-05-02T10:32:55.616Z,44.71
2019-05-02T10:33:52.910Z,43.59
2019-05-02T10:34:55.204Z,44.51
2019-05-02T10:35:52.688Z,44.92
2019-05-02T10:36:58.309Z,44.92
2019-05-02T10:37:52.229Z,44.01
2019-05-02T10:38:54.791Z,44.01
2019-05-02T10:39:55.528Z,43.51
2019-05-02T10:40:56.169Z,44.21
2019-05-02T10:41:52.691Z,43.62
2019-05-02T10:42:52.252Z,43.62
2019-05-02T10:43:55.373Z,43.82
2019-05-02T10:44:52.224Z,44.01
2019-05-02T10:45:52.884Z,44.01
2019-05-02T10:46:52.296Z,43.91
2019-05-02T10:47:52.673Z,44.12
2019-05-02T10:48:52.516Z,43.51
2019-05-02T10:49:52.741Z,44.01
2019-05-02T10:50:52.473Z,44.01
2019-05-02T10:51:51.823Z,44.01
2019-05-02T10:52:52.693Z,44.01
2019-05-02T10:53:52.779Z,43.82
2019-05-02T10:54:52.878Z,43.82
2019-05-02T10:55:52.250Z,43.41
2019-05-02T10:56:51.852Z,43.12
2019-05-02T10:57:52.682Z,43.21
2019-05-02T10:58:52.304Z,43.32
2019-05-02T10:59:52.552Z,43.62
2019-05-02T11:00:52.312Z,43.01
2019-05-02T11:01:52.155Z,43.71
2019-05-02T11:02:52.492Z,43.32
2019-05-02T11:03:51.702Z,43.41
2019-05-02T11:04:52.476Z,43.21
2019-05-02T11:05:52.784Z,43.62
2019-05-02T11:06:51.828Z,42.82
2019-05-02T11:07:52.291Z,43.82
2019-05-02T11:08:52.385Z,43.21
2019-05-02T11:09:52.555Z,43.41
2019-05-02T11:10:52.622Z,42.71
2019-05-02T11:11:51.979Z,43.41
2019-05-02T11:12:52.622Z,42.91
2019-05-02T11:13:55.394Z,43.12
2019-05-02T11:14:51.823Z,43.01
2019-05-02T11:15:52.519Z,42.91
2019-05-02T11:16:52.495Z,42.82
2019-05-02T11:17:52.773Z,42.82
2019-05-02T11:18:52.526Z,42.91
2019-05-02T11:19:52.360Z,42.91
2019-05-02T11:20:52.477Z,43.01
2019-05-02T11:21:56.432Z,43.12
2019-05-02T11:22:52.643Z,43.21
2019-05-02T11:23:52.608Z,43.82
2019-05-02T11:24:52.363Z,43.51
2019-05-02T11:25:52.495Z,43.41
2019-05-02T11:26:52.681Z,42.71
2019-05-02T11:27:52.505Z,43.21
2019-05-02T11:28:52.170Z,42.82
2019-05-02T11:29:52.538Z,43.41
2019-05-02T11:30:52.481Z,43.21
2019-05-02T11:31:52.095Z,42.91
2019-05-02T11:32:52.117Z,43.41
2019-05-02T11:33:52.479Z,42.91
2019-05-02T11:34:52.386Z,43.21
2019-05-02T11:35:51.529Z,42.52
2019-05-02T11:36:52.482Z,43.32
2019-05-02T11:37:51.698Z,43.21
2019-05-02T11:38:57.290Z,43.21
2019-05-02T11:39:57.630Z,43.01
2019-05-02T11:40:52.050Z,42.91
2019-05-02T11:41:52.555Z,43.62
2019-05-02T11:42:52.148Z,42.82
2019-05-02T11:43:54.101Z,43.41
2019-05-02T11:44:52.375Z,42.91
2019-05-02T11:45:54.178Z,42.91
2019-05-02T11:46:52.039Z,43.51
2019-05-02T11:47:50.454Z,42.91
2019-05-02T11:48:56.413Z,43.12
2019-05-02T11:49:55.746Z,41.71
2019-05-02T11:50:52.290Z,43.01
2019-05-02T11:51:52.621Z,43.13
2019-05-02T11:52:52.252Z,42.91
2019-05-02T11:53:52.418Z,42.32
2019-05-02T11:54:52.092Z,42.21
2019-05-02T11:55:50.369Z,42.63
2019-05-02T11:56:51.348Z,42.71
2019-05-02T11:57:52.244Z,43.01
2019-05-02T11:58:50.361Z,42.74
2019-05-02T11:59:52.061Z,42.32
2019-05-02T12:00:52.096Z,43.12
2019-05-02T12:01:57.629Z,43.12
2019-05-02T12:02:54.274Z,43.12
2019-05-02T12:03:52.460Z,42.52
2019-05-02T12:04:54.297Z,42.91
2019-05-02T12:05:52.458Z,42.74
2019-05-02T12:07:01.116Z,42.91
2019-05-02T12:07:52.649Z,42.91
2019-05-02T12:08:52.259Z,42.91
2019-05-02T12:09:55.600Z,42.82
2019-05-02T12:10:51.924Z,42.61
2019-05-02T12:11:55.005Z,43.12
2019-05-02T12:12:52.705Z,42.52
2019-05-02T12:13:54.802Z,42.41
2019-05-02T12:14:52.809Z,42.83
2019-05-02T12:15:51.929Z,42.71
2019-05-02T12:16:50.142Z,42.82
2019-05-02T12:17:51.655Z,43.04
2019-05-02T12:18:50.123Z,42.82
2019-05-02T12:19:52.232Z,43.51
2019-05-02T12:20:52.004Z,42.71
2019-05-02T12:21:50.087Z,42.82
2019-05-02T12:22:50.096Z,43.21
2019-05-02T12:23:51.992Z,42.82
2019-05-02T12:24:51.882Z,42.91
2019-05-02T12:25:51.857Z,43.01
2019-05-02T12:26:50.032Z,43.12
2019-05-02T12:27:50.023Z,43.51
2019-05-02T12:28:50.013Z,42.82
2019-05-02T12:29:57.489Z,42.82
2019-05-02T12:30:51.915Z,43.12
2019-05-02T12:31:54.783Z,42.91
2019-05-02T12:32:52.997Z,42.91
2019-05-02T12:33:51.634Z,43.04
2019-05-02T12:34:49.945Z,43.04
2019-05-02T12:35:49.950Z,43.01
2019-05-02T12:36:49.928Z,42.83
2019-05-02T12:37:53.733Z,42.74
2019-05-02T12:38:52.653Z,42.93
2019-05-02T12:39:51.696Z,43.04
2019-05-02T12:40:51.903Z,43.21
2019-05-02T12:41:50.358Z,42.74
2019-05-02T12:42:49.860Z,42.93
2019-05-02T12:43:49.848Z,43.32
2019-05-02T12:44:49.840Z,43.33
2019-05-02T12:45:49.829Z,42.91
2019-05-02T12:46:51.639Z,43.12
2019-05-02T12:47:49.831Z,43.13
2019-05-02T12:48:51.344Z,42.74
2019-05-02T12:49:51.696Z,43.24
2019-05-02T12:50:49.773Z,42.54
2019-05-02T12:51:49.762Z,42.82
2019-05-02T12:52:49.752Z,42.32
2019-05-02T12:53:49.740Z,43.54
2019-05-02T12:54:49.730Z,43.33
2019-05-02T12:55:49.720Z,42.83
2019-05-02T12:56:49.707Z,42.13
2019-05-02T12:57:49.720Z,43.54
2019-05-02T12:58:49.686Z,42.41
2019-05-02T12:59:49.676Z,42.83
2019-05-02T13:00:49.666Z,42.93
2019-05-02T13:01:51.672Z,42.33
2019-05-02T13:02:49.642Z,42.43
2019-05-02T13:03:51.625Z,42.33
2019-05-02T13:04:49.626Z,42.54
2019-05-02T13:05:49.610Z,42.52
2019-05-02T13:06:49.598Z,42.03
2019-05-02T13:07:53.550Z,42.54
2019-05-02T13:08:52.432Z,42.41
2019-05-02T13:09:49.587Z,42.41
2019-05-02T13:10:54.046Z,42.91
2019-05-02T13:11:52.319Z,42.11
2019-05-02T13:12:49.542Z,42.33
2019-05-02T13:13:49.523Z,42.33
2019-05-02T13:14:49.518Z,42.52
2019-05-02T13:15:49.505Z,42.24
2019-05-02T13:16:53.451Z,42.32
2019-05-02T13:17:52.102Z,42.43
2019-05-02T13:18:49.477Z,42.63
2019-05-02T13:19:56.893Z,42.41
2019-05-02T13:20:52.642Z,42.33
2019-05-02T13:21:50.202Z,42.32
2019-05-02T13:22:52.525Z,42.33
2019-05-02T13:23:49.418Z,42.24
2019-05-02T13:24:54.026Z,42.43
2019-05-02T13:25:51.786Z,42.33
2019-05-02T13:26:52.034Z,42.24
2019-05-02T13:27:52.103Z,42.71
2019-05-02T13:28:49.381Z,42.52
2019-05-02T13:29:49.353Z,42.43
2019-05-02T13:30:49.344Z,42.32
2019-05-02T13:31:49.331Z,42.43
2019-05-02T13:32:56.144Z,42.43
2019-05-02T13:33:52.248Z,42.61
2019-05-02T13:34:54.161Z,42.63
2019-05-02T13:35:51.915Z,42.02
2019-05-02T13:36:49.281Z,42.24
2019-05-02T13:37:49.268Z,42.24
2019-05-02T13:38:49.259Z,42.93
2019-05-02T13:39:49.247Z,43.54
2019-05-02T13:40:49.238Z,42.13
2019-05-02T13:41:49.226Z,42.82
2019-05-02T13:42:49.218Z,43.24
2019-05-02T13:43:49.205Z,43.71
2019-05-02T13:44:49.194Z,42.91
2019-05-02T13:45:49.223Z,43.84
2019-05-02T13:46:49.177Z,43.63
2019-05-02T13:47:49.162Z,43.01
2019-05-02T13:48:49.162Z,43.91
2019-05-02T13:49:53.937Z,44.71
2019-05-02T13:50:51.844Z,44.93
2019-05-02T13:51:49.124Z,44.62
2019-05-02T13:52:52.928Z,44.64
2019-05-02T13:53:52.082Z,44.93
2019-05-02T13:54:49.096Z,45.12
2019-05-02T13:55:49.075Z,45.21
2019-05-02T13:56:49.073Z,44.82
2019-05-02T13:57:49.064Z,45.01
2019-05-02T13:58:49.046Z,45.42
2019-05-02T13:59:49.032Z,45.31
2019-05-02T14:00:49.023Z,45.42
2019-05-02T14:01:49.021Z,45.21
2019-05-02T14:02:49.001Z,44.82
2019-05-02T14:03:48.995Z,45.21
2019-05-02T14:04:48.983Z,44.82
2019-05-02T14:05:51.779Z,45.51
2019-05-02T14:06:48.957Z,45.01
2019-05-02T14:07:54.070Z,45.51
2019-05-02T14:08:49.941Z,45.21
2019-05-02T14:09:50.863Z,44.71
2019-05-02T14:10:49.925Z,45.42
2019-05-02T14:11:48.904Z,46.42
2019-05-02T14:12:48.891Z,44.92
2019-05-02T14:13:48.881Z,45.51
2019-05-02T14:14:48.870Z,44.71
2019-05-02T14:15:48.857Z,44.21
2019-05-02T14:16:48.848Z,45.54
2019-05-02T14:17:48.838Z,45.72
2019-05-02T14:18:48.825Z,46.31
2019-05-02T14:19:48.818Z,46.31
2019-05-02T14:20:48.805Z,45.51
2019-05-02T14:21:48.791Z,46.01
2019-05-02T14:22:48.794Z,46.22
2019-05-02T14:23:48.772Z,46.04
2019-05-02T14:24:48.759Z,45.92
2019-05-02T14:25:48.748Z,46.01
2019-05-02T14:26:48.748Z,46.01
2019-05-02T14:27:53.835Z,46.22
2019-05-02T14:28:49.717Z,46.34
2019-05-02T14:29:48.713Z,46.01
2019-05-02T14:30:48.701Z,45.42
2019-05-02T14:31:48.683Z,45.81
2019-05-02T14:32:48.681Z,45.92
2019-05-02T14:33:48.661Z,45.21
2019-05-02T14:34:48.649Z,45.21
2019-05-02T14:35:48.639Z,45.51
2019-05-02T14:36:48.628Z,45.01
2019-05-02T14:37:48.622Z,44.84
2019-05-02T14:38:48.606Z,45.21
2019-05-02T14:39:48.595Z,44.93
2019-05-02T14:40:48.583Z,45.01
2019-05-02T14:41:48.580Z,45.24
2019-05-02T14:42:48.585Z,44.93
2019-05-02T14:43:48.606Z,45.34
2019-05-02T14:45:05.588Z,45.12
2019-05-02T14:45:50.913Z,45.31
2019-05-02T14:46:49.524Z,44.51
2019-05-02T14:47:49.756Z,45.21
2019-05-02T14:48:49.502Z,45.04
2019-05-02T14:49:48.509Z,44.43
2019-05-02T14:50:48.473Z,45.54
2019-05-02T14:51:48.465Z,46.01
2019-05-02T14:52:48.451Z,45.04
2019-05-02T14:53:48.444Z,45.31
2019-05-02T14:54:49.339Z,45.14
2019-05-02T14:55:48.426Z,44.74
2019-05-02T14:56:48.409Z,45.34
2019-05-02T14:57:48.397Z,44.93
2019-05-02T14:58:48.383Z,45.21
2019-05-02T14:59:50.426Z,44.74
2019-05-02T15:00:49.361Z,44.93
2019-05-02T15:01:48.389Z,45.04
2019-05-02T15:02:49.341Z,45.34
2019-05-02T15:03:48.332Z,45.14
2019-05-02T15:04:48.975Z,45.14
2019-05-02T15:05:48.339Z,45.34
2019-05-02T15:06:48.390Z,45.01
2019-05-02T15:07:48.326Z,44.93
2019-05-02T15:08:48.277Z,44.62
2019-05-02T15:09:48.609Z,44.92
2019-05-02T15:10:52.432Z,44.84
2019-05-02T15:11:49.261Z,44.74
2019-05-02T15:12:51.688Z,45.14
2019-05-02T15:13:49.237Z,44.93
2019-05-02T15:14:49.231Z,45.04
2019-05-02T15:15:49.198Z,44.74
2019-05-02T15:16:49.733Z,44.74
2019-05-02T15:17:49.177Z,44.84
2019-05-02T15:18:55.408Z,44.71
2019-05-02T15:19:49.153Z,44.92
2019-05-02T15:20:48.146Z,45.04
2019-05-02T15:21:54.339Z,45.12
2019-05-02T15:22:49.122Z,45.12
2019-05-02T15:23:48.938Z,44.71
2019-05-02T15:24:48.111Z,44.74
2019-05-02T15:25:52.599Z,45.43
2019-05-02T15:26:49.086Z,44.93
2019-05-02T15:27:49.852Z,44.71
2019-05-02T15:28:49.055Z,45.12
2019-05-02T15:29:48.049Z,44.93
2019-05-02T15:30:49.531Z,42.91
2019-05-02T15:31:48.020Z,41.93
2019-05-02T15:32:48.012Z,41.53
2019-05-02T15:33:48.002Z,41.63
2019-05-02T15:34:48.063Z,42.24
2019-05-02T15:35:47.982Z,42.03
2019-05-02T15:36:47.972Z,42.33
2019-05-02T15:37:47.958Z,43.24
2019-05-02T15:38:47.950Z,43.46
2019-05-02T15:40:51.476Z,42.96
2019-05-02T15:41:48.702Z,43.66
2019-05-02T15:42:47.902Z,43.26
2019-05-02T15:43:49.291Z,43.66
2019-05-02T15:44:47.881Z,43.85
2019-05-02T15:45:47.872Z,43.85
2019-05-02T15:46:48.011Z,43.85
2019-05-02T15:47:47.851Z,43.55
2019-05-02T15:48:47.840Z,43.76
2019-05-02T15:49:50.159Z,43.74
2019-05-02T15:50:54.585Z,44.43
2019-05-02T15:51:49.979Z,44.74
2019-05-02T15:52:47.798Z,45.16
2019-05-02T15:53:49.818Z,44.93
2019-05-02T15:54:55.326Z,45.34
2019-05-02T15:55:50.091Z,44.93
2019-05-02T15:56:52.489Z,44.93
2019-05-02T15:57:49.414Z,45.06
2019-05-02T15:58:47.732Z,45.34
2019-05-02T15:59:47.722Z,44.93
2019-05-02T16:00:47.717Z,45.24
2019-05-02T16:01:48.064Z,44.64
2019-05-02T16:02:47.693Z,44.93
2019-05-02T16:03:47.677Z,45.74
2019-05-02T16:04:47.689Z,45.14
2019-05-02T16:05:47.670Z,45.54
2019-05-02T16:06:47.661Z,45.14
2019-05-02T16:07:47.634Z,45.04
2019-05-02T16:08:47.639Z,45.14
2019-05-02T16:09:51.578Z,45.24
2019-05-02T16:10:48.604Z,44.84
2019-05-02T16:11:47.940Z,45.34
2019-05-02T16:12:47.582Z,44.84
2019-05-02T16:13:54.071Z,45.43
2019-05-02T16:14:48.557Z,45.43
2019-05-02T16:15:47.551Z,45.54
2019-05-02T16:16:47.539Z,44.74
2019-05-02T16:17:47.527Z,45.74
2019-05-02T16:18:47.515Z,45.24
2019-05-02T16:19:47.510Z,44.84
2019-05-02T16:20:49.269Z,46.04
2019-05-02T16:21:47.481Z,46.24
2019-05-02T16:22:49.829Z,46.44
2019-05-02T16:23:47.461Z,47.54
2019-05-02T16:24:49.121Z,47.44
2019-05-02T16:25:47.440Z,46.54
2019-05-02T16:26:47.430Z,46.24
2019-05-02T16:27:47.421Z,46.36
2019-05-02T16:28:47.410Z,46.16
2019-05-02T16:29:47.487Z,46.16
2019-05-02T16:30:47.695Z,45.66
2019-05-02T16:31:47.378Z,45.66
2019-05-02T16:32:47.416Z,45.88
2019-05-02T16:33:49.691Z,46.08
2019-05-02T16:34:47.352Z,45.78
2019-05-02T16:35:51.513Z,46.08
2019-05-02T16:36:48.323Z,44.98
2019-05-02T16:37:54.067Z,44.96
2019-05-02T16:38:48.300Z,45.38
2019-05-02T16:39:49.628Z,45.28
2019-05-02T16:40:47.287Z,43.68
2019-05-02T16:41:49.389Z,44.78
2019-05-02T16:42:47.260Z,43.88
2019-05-02T16:43:47.249Z,44.28
2019-05-02T16:44:47.239Z,44.08
2019-05-02T16:45:47.231Z,43.88
2019-05-02T16:46:47.222Z,44.98
2019-05-02T16:47:49.734Z,43.88
2019-05-02T16:48:48.219Z,43.68
2019-05-02T16:49:47.913Z,43.77
2019-05-02T16:50:47.202Z,44.48
2019-05-02T16:51:47.163Z,43.58
2019-05-02T16:52:47.508Z,44.06
2019-05-02T16:53:47.249Z,43.88
2019-05-02T16:54:47.149Z,43.66
2019-05-02T16:55:47.124Z,43.66
2019-05-02T16:56:47.111Z,43.96
2019-05-02T16:57:47.935Z,43.76
2019-05-02T16:58:47.270Z,44.06
2019-05-02T16:59:47.080Z,43.66
2019-05-02T17:00:47.088Z,43.35
2019-05-02T17:01:47.057Z,43.55
2019-05-02T17:02:47.049Z,43.76
2019-05-02T17:03:47.040Z,43.85
2019-05-02T17:04:47.026Z,43.66
2019-05-02T17:05:49.341Z,43.46
2019-05-02T17:06:47.024Z,42.66
2019-05-02T17:07:47.009Z,42.96
2019-05-02T17:08:49.510Z,42.96
2019-05-02T17:09:47.966Z,43.46
2019-05-02T17:10:47.321Z,42.85
2019-05-02T17:11:47.976Z,43.66
2019-05-02T17:12:47.335Z,43.74
2019-05-02T17:13:46.950Z,43.35
2019-05-02T17:14:51.603Z,44.74
2019-05-02T17:15:47.900Z,43.85
2019-05-02T17:16:51.363Z,45.96
2019-05-02T17:17:47.891Z,44.66
2019-05-02T17:18:48.329Z,45.56
2019-05-02T17:19:47.863Z,46.16
2019-05-02T17:20:52.116Z,45.88
2019-05-02T17:21:55.922Z,46.36
2019-05-02T17:22:50.297Z,46.38
2019-05-02T17:23:49.716Z,45.88
2019-05-02T17:24:47.805Z,46.28
2019-05-02T17:25:46.795Z,47.88
2019-05-02T17:26:46.782Z,46.38
2019-05-02T17:27:46.772Z,46.18
2019-05-02T17:28:47.230Z,46.48
2019-05-02T17:29:46.770Z,47.99
2019-05-02T17:30:46.738Z,46.88
2019-05-02T17:31:49.954Z,47.69
2019-05-02T17:32:47.715Z,47.69
2019-05-02T17:33:50.981Z,48.69
2019-05-02T17:34:47.693Z,47.19
2019-05-02T17:35:49.912Z,48.28
2019-05-02T17:36:46.705Z,45.98
2019-05-02T17:37:48.786Z,46.28
2019-05-02T17:38:46.665Z,46.11
2019-05-02T17:39:46.659Z,45.60
2019-05-02T17:40:46.632Z,45.70
2019-05-02T17:41:46.618Z,44.80
2019-05-02T17:42:46.610Z,46.11
2019-05-02T17:43:46.599Z,46.00
2019-05-02T17:44:46.593Z,44.62
2019-05-02T17:45:47.956Z,45.53
2019-05-02T17:46:50.829Z,45.12
2019-05-02T17:47:47.565Z,45.00
2019-05-02T17:48:47.605Z,45.22
2019-05-02T17:49:47.532Z,45.12
2019-05-02T17:50:49.398Z,45.22
2019-05-02T17:51:47.510Z,45.42
2019-05-02T17:52:46.501Z,45.32
2019-05-02T17:53:49.822Z,45.62
2019-05-02T17:54:46.480Z,45.72
2019-05-02T17:55:46.473Z,45.42
2019-05-02T17:56:46.464Z,45.72
2019-05-02T17:57:48.389Z,45.92
2019-05-02T17:58:53.351Z,46.12
2019-05-02T17:59:47.425Z,46.33
2019-05-02T18:00:47.369Z,46.42
2019-05-02T18:01:46.407Z,45.92
2019-05-02T18:02:46.884Z,46.12
2019-05-02T18:03:46.381Z,46.12
2019-05-02T18:04:51.056Z,46.62
2019-05-02T18:05:47.358Z,46.42
2019-05-02T18:06:47.008Z,46.12
2019-05-02T18:07:46.340Z,46.04
2019-05-02T18:08:50.986Z,46.15
2019-05-02T18:09:47.322Z,46.33
2019-05-02T18:10:50.610Z,46.55
2019-05-02T18:11:47.295Z,46.33
2019-05-02T18:12:47.320Z,46.15
2019-05-02T18:13:47.270Z,46.33
2019-05-02T18:14:46.262Z,46.93
2019-05-02T18:15:46.251Z,46.62
2019-05-02T18:16:47.126Z,47.13
2019-05-02T18:17:46.233Z,46.33
2019-05-02T18:18:46.866Z,46.30
2019-05-02T18:19:46.226Z,46.11
2019-05-02T18:20:46.597Z,45.90
2019-05-02T18:21:46.187Z,46.20
2019-05-02T18:22:48.960Z,46.20
2019-05-02T18:23:46.165Z,45.60
2019-05-02T18:24:46.499Z,45.80
2019-05-02T18:25:46.140Z,45.50
2019-05-02T18:26:46.129Z,45.00
2019-05-02T18:27:46.120Z,45.88
2019-05-02T18:28:49.267Z,46.08
2019-05-02T18:29:46.098Z,45.68
2019-05-02T18:30:46.095Z,44.78
2019-05-02T18:31:47.664Z,45.78
2019-05-02T18:32:46.069Z,45.78
2019-05-02T18:33:46.053Z,45.08
2019-05-02T18:34:46.044Z,45.58
2019-05-02T18:35:47.021Z,45.06
2019-05-02T18:36:46.022Z,45.06
2019-05-02T18:37:46.898Z,45.16
2019-05-02T18:38:46.007Z,45.08
2019-05-02T18:39:51.857Z,45.06
2019-05-02T18:40:46.978Z,45.16
2019-05-02T18:41:46.490Z,44.56
2019-05-02T18:42:45.969Z,44.56
2019-05-02T18:43:45.942Z,45.26
2019-05-02T18:44:48.224Z,45.43
2019-05-02T18:45:46.936Z,45.06
2019-05-02T18:46:45.911Z,45.36
2019-05-02T18:47:45.903Z,44.74
2019-05-02T18:48:49.015Z,44.84
2019-05-02T18:49:45.880Z,44.74
2019-05-02T18:50:48.502Z,44.64
2019-05-02T18:51:48.234Z,44.84
2019-05-02T18:52:48.196Z,45.04
2019-05-02T18:53:45.837Z,44.93
2019-05-02T18:54:47.447Z,45.04
2019-05-02T18:55:45.820Z,44.74
2019-05-02T18:56:49.459Z,45.14
2019-05-02T18:57:46.789Z,44.84
2019-05-02T18:58:45.779Z,44.74
2019-05-02T18:59:45.774Z,44.43
2019-05-02T19:00:45.757Z,44.34
2019-05-02T19:01:47.459Z,44.64
2019-05-02T19:02:46.734Z,43.74
2019-05-02T19:03:46.990Z,43.62
2019-05-02T19:04:46.721Z,44.64
2019-05-02T19:05:46.715Z,44.42
2019-05-02T19:06:45.691Z,45.01
2019-05-02T19:07:47.353Z,45.12
2019-05-02T19:08:49.884Z,44.71
2019-05-02T19:09:51.164Z,44.82
2019-05-02T19:11:02.525Z,45.01
2019-05-02T19:11:46.636Z,45.20
2019-05-02T19:12:45.625Z,44.89
2019-05-02T19:13:45.660Z,45.09
2019-05-02T19:14:45.606Z,44.49
2019-05-02T19:15:48.947Z,44.70
2019-05-02T19:16:45.581Z,43.59
2019-05-02T19:17:45.572Z,43.59
2019-05-02T19:18:49.010Z,43.57
2019-05-02T19:19:46.545Z,43.87
2019-05-02T19:20:52.534Z,43.77
2019-05-02T19:21:46.534Z,43.57
2019-05-02T19:22:50.793Z,45.07
2019-05-02T19:23:46.503Z,44.47
2019-05-02T19:24:45.499Z,43.57
2019-05-02T19:25:45.482Z,43.87
2019-05-02T19:26:49.384Z,43.87
2019-05-02T19:27:46.475Z,44.57
2019-05-02T19:28:45.464Z,44.75
2019-05-02T19:29:48.148Z,47.67
2019-05-02T19:30:45.430Z,44.95
2019-05-02T19:31:46.421Z,45.65
2019-05-02T19:32:45.409Z,46.05
2019-05-02T19:33:45.397Z,44.75
2019-05-02T19:34:45.403Z,44.55
2019-05-02T19:35:46.866Z,44.15
2019-05-02T19:36:45.365Z,45.25
2019-05-02T19:37:47.788Z,45.05
2019-05-02T19:38:45.344Z,44.85
2019-05-02T19:39:48.818Z,45.13
2019-05-02T19:40:45.328Z,44.75
2019-05-02T19:41:45.707Z,44.53
2019-05-02T19:42:45.302Z,45.03
2019-05-02T19:43:49.399Z,44.83
2019-05-02T19:44:46.279Z,44.53
2019-05-02T19:45:45.761Z,44.43
2019-05-02T19:46:45.262Z,44.53
2019-05-02T19:47:49.051Z,44.23
2019-05-02T19:48:45.238Z,43.73
2019-05-02T19:49:47.202Z,43.83
2019-05-02T19:50:46.222Z,43.53
2019-05-02T19:51:45.211Z,43.63
2019-05-02T19:52:45.199Z,43.53
2019-05-02T19:53:45.188Z,43.55
2019-05-02T19:54:45.178Z,43.55
2019-05-02T19:55:45.183Z,44.33
2019-05-02T19:56:47.525Z,44.63
2019-05-02T19:57:45.151Z,44.35
2019-05-02T19:58:46.773Z,44.43
2019-05-02T19:59:45.127Z,44.63
2019-05-02T20:00:46.349Z,44.35
2019-05-02T20:01:45.105Z,44.25
2019-05-02T20:02:45.093Z,44.43
2019-05-02T20:03:45.079Z,44.13
2019-05-02T20:04:45.070Z,43.73
2019-05-02T20:05:45.085Z,43.53
2019-05-02T20:06:45.081Z,44.33
2019-05-02T20:07:45.057Z,44.35
2019-05-02T20:08:45.049Z,43.93
2019-05-02T20:09:47.291Z,44.63
2019-05-02T20:10:49.213Z,45.03
2019-05-02T20:11:46.021Z,44.45
2019-05-02T20:12:48.202Z,45.03
2019-05-02T20:13:46.003Z,45.25
2019-05-02T20:14:47.481Z,44.63
2019-05-02T20:15:44.971Z,45.25
2019-05-02T20:16:45.947Z,45.13
2019-05-02T20:17:44.981Z,45.23
2019-05-02T20:18:47.081Z,44.73
2019-05-02T20:19:44.938Z,45.33
2019-05-02T20:20:44.926Z,45.43
2019-05-02T20:21:44.904Z,45.93
2019-05-02T20:22:44.896Z,46.23
2019-05-02T20:23:44.887Z,45.83
2019-05-02T20:24:49.319Z,45.83
2019-05-02T20:25:45.876Z,45.63
2019-05-02T20:26:46.677Z,45.83
2019-05-02T20:27:45.854Z,46.01
2019-05-02T20:28:44.858Z,46.23
2019-05-02T20:29:44.843Z,45.93
2019-05-02T20:30:44.789Z,45.81
2019-05-02T20:31:44.784Z,46.61
2019-05-02T20:32:44.808Z,46.31
2019-05-02T20:33:44.797Z,46.20
2019-05-02T20:34:44.766Z,47.71
2019-05-02T20:35:44.764Z,48.60
2019-05-02T20:36:44.761Z,48.10
2019-05-02T20:37:47.716Z,47.71
2019-05-02T20:38:44.744Z,47.90
2019-05-02T20:39:44.706Z,48.18
2019-05-02T20:40:44.717Z,48.10
2019-05-02T20:41:44.682Z,48.10
2019-05-02T20:42:44.675Z,47.90
2019-05-02T20:43:45.008Z,47.60
2019-05-02T20:44:44.652Z,47.90
2019-05-02T20:45:46.149Z,47.60
2019-05-02T20:46:44.644Z,47.71
2019-05-02T20:47:44.620Z,47.30
2019-05-02T20:48:44.608Z,47.30
2019-05-02T20:49:44.592Z,47.50
2019-05-02T20:50:44.584Z,47.40
2019-05-02T20:51:44.594Z,47.40
2019-05-02T20:52:44.584Z,48.40
2019-05-02T20:53:44.561Z,47.90
2019-05-02T20:54:44.547Z,47.80
2019-05-02T20:55:44.513Z,48.08
2019-05-02T20:56:44.541Z,48.30
2019-05-02T20:57:44.522Z,48.40
2019-05-02T20:58:44.502Z,48.08
2019-05-02T20:59:44.506Z,48.38
2019-05-02T21:00:44.492Z,48.00
2019-05-02T21:01:44.461Z,48.28
2019-05-02T21:02:44.464Z,48.38
2019-05-02T21:03:44.460Z,48.28
2019-05-02T21:04:44.435Z,48.58
2019-05-02T21:05:44.453Z,48.97
2019-05-02T21:06:44.532Z,48.58
2019-05-02T21:07:44.440Z,48.38
2019-05-02T21:08:44.417Z,48.08
2019-05-02T21:09:44.438Z,49.08
2019-05-02T21:10:44.385Z,48.68
2019-05-02T21:11:44.375Z,49.18
2019-05-02T21:12:44.356Z,48.28
2019-05-02T21:13:44.476Z,48.95
2019-05-02T21:14:44.332Z,48.95
2019-05-02T21:15:44.340Z,48.75
2019-05-02T21:16:44.570Z,48.75
2019-05-02T21:17:44.317Z,49.25
2019-05-02T21:18:44.294Z,48.85
2019-05-02T21:19:44.312Z,48.85
2019-05-02T21:20:44.282Z,49.25
2019-05-02T21:21:45.079Z,49.25
2019-05-02T21:22:44.241Z,49.25
2019-05-02T21:23:47.485Z,49.43
2019-05-02T21:24:44.765Z,48.95
2019-05-02T21:25:44.413Z,49.05
2019-05-02T21:26:44.224Z,48.75
2019-05-02T21:27:44.484Z,48.85
2019-05-02T21:28:46.187Z,48.75
2019-05-02T21:29:45.025Z,48.75
2019-05-02T21:30:45.004Z,48.93
2019-05-02T21:31:44.242Z,49.35
2019-05-02T21:32:44.708Z,48.85
2019-05-02T21:33:44.292Z,48.85
2019-05-02T21:34:44.099Z,49.25
2019-05-02T21:35:44.129Z,49.05
2019-05-02T21:36:44.092Z,49.05
2019-05-02T21:37:44.065Z,48.75
2019-05-02T21:38:44.051Z,48.85
2019-05-02T21:39:44.042Z,48.95
2019-05-02T21:40:44.033Z,49.25
2019-05-02T21:41:44.022Z,49.35
2019-05-02T21:42:44.008Z,49.25
2019-05-02T21:43:44.127Z,50.95
2019-05-02T21:44:43.991Z,51.15
2019-05-02T21:45:43.978Z,49.95
2019-05-02T21:46:43.990Z,50.55
2019-05-02T21:47:44.033Z,50.15
2019-05-02T21:48:43.946Z,50.45
2019-05-02T21:49:43.935Z,50.35
2019-05-02T21:50:43.925Z,50.35
2019-05-02T21:51:43.921Z,50.25
2019-05-02T21:52:43.915Z,50.35
2019-05-02T21:53:55.013Z,50.65
2019-05-02T21:54:44.903Z,50.74
2019-05-02T21:55:43.879Z,47.96
2019-05-02T21:56:43.859Z,46.16